LKTB/BRQ METAR and TAF weather

Enter ICAO airport designator
Station Type Date Time Source
LKTB METAR 2022/08/13 11:30 UTC NOAA

LKTB 131130Z 03008KT 330V080 9999 FEW046 25/14 Q1014 NOSIG


Station Type Date Time Source
LKTB Decoded METAR 2022/08/13 11:30 UTC NOAA

Brno / Turany, Czech Republic (LKTB) 49-09N 016-42E 246M
Aug 13, 2022 - 07:30 AM EDT / 2022.08.13 1130 UTC
Wind: from the NNE (030 degrees) at 9 MPH (8 KT) (direction variable):0
Visibility: greater than 7 mile(s):0
Sky conditions: mostly clear
Temperature: 77 F (25 C)
Dew Point: 57 F (14 C)
Relative Humidity: 50%
Pressure (altimeter): 29.94 in. Hg (1014 hPa)
ob: LKTB 131130Z 03008KT 330V080 9999 FEW046 25/14 Q1014 NOSIG
cycle: 11

Station Type Date Time Source
LKTB TAF 2022/08/13 12:11 UTC NOAA

TAF LKTB 131100Z 1312/1418 05010KT 9999 SCT040
TEMPO 1312/1319 05012G24KT 8000 SHRA SCT025CB
TEMPO 1410/1418 05012G24KT PROB30
TEMPO 1412/1418 8000 SHRA SCT025CB

Example: see airport list